createdAt,value
2023-04-18T00:01:56.994Z,59.50
2023-04-18T00:04:25.546Z,69.50
2023-04-18T00:06:53.877Z,68.20
2023-04-18T00:09:22.083Z,65.80
2023-04-18T00:11:50.236Z,88.70
2023-04-18T00:14:18.927Z,80.80
2023-04-18T00:16:47.443Z,85.40
2023-04-18T00:19:18.358Z,93.60
2023-04-18T00:21:47.048Z,97.40
2023-04-18T00:24:15.483Z,93.20
2023-04-18T00:26:43.818Z,97.10
2023-04-18T00:29:11.964Z,97.20
2023-04-18T00:31:40.088Z,95.50
2023-04-18T00:34:08.247Z,93.30
2023-04-18T00:36:37.796Z,97.90
2023-04-18T00:39:06.644Z,99.90
2023-04-18T00:41:34.894Z,99.90
2023-04-18T00:44:03.174Z,99.90
2023-04-18T00:46:31.422Z,99.90
2023-04-18T00:48:59.644Z,99.90
2023-04-18T00:51:28.115Z,99.80
2023-04-18T00:53:57.923Z,99.90
2023-04-18T00:56:26.745Z,99.90
2023-04-18T00:58:55.788Z,99.90
2023-04-18T01:01:24.011Z,99.90
2023-04-18T01:03:52.340Z,99.90
2023-04-18T01:06:20.892Z,99.90
2023-04-18T01:08:49.409Z,99.90
2023-04-18T01:11:19.033Z,99.90
2023-04-18T01:14:00.621Z,99.90
2023-04-18T01:16:29.596Z,99.90
2023-04-18T01:18:57.972Z,99.90
2023-04-18T01:21:26.900Z,99.90
2023-04-18T01:23:55.173Z,99.90
2023-04-18T01:26:24.805Z,99.90
2023-04-18T01:28:53.269Z,99.90
2023-04-18T01:31:21.569Z,99.90
2023-04-18T01:33:49.739Z,99.90
2023-04-18T01:36:17.943Z,99.90
2023-04-18T01:38:46.120Z,99.90
2023-04-18T01:41:14.322Z,99.90
2023-04-18T01:43:43.844Z,99.90
2023-04-18T01:46:12.042Z,97.80
2023-04-18T01:48:40.200Z,98.20
2023-04-18T01:51:08.382Z,95.70
2023-04-18T01:53:36.667Z,95.50
2023-04-18T01:56:04.864Z,92.00
2023-04-18T01:58:33.033Z,99.90
2023-04-18T02:01:02.730Z,94.60
2023-04-18T02:03:31.218Z,99.50
2023-04-18T02:05:59.510Z,93.10
2023-04-18T02:08:27.822Z,94.60
2023-04-18T02:10:56.028Z,93.90
2023-04-18T02:13:24.225Z,95.00
2023-04-18T02:15:52.347Z,77.00
2023-04-18T02:18:22.054Z,78.20
2023-04-18T02:20:50.223Z,75.70
2023-04-18T02:23:18.471Z,82.00
2023-04-18T02:25:46.657Z,80.10
2023-04-18T02:28:14.830Z,70.60
2023-04-18T02:30:42.981Z,75.00
2023-04-18T02:33:11.143Z,76.00
2023-04-18T02:35:42.138Z,92.70
2023-04-18T02:38:10.327Z,70.60
2023-04-18T02:40:38.664Z,77.00
2023-04-18T02:43:06.838Z,74.90
2023-04-18T02:45:35.035Z,74.90
2023-04-18T02:48:03.255Z,76.70
2023-04-18T02:50:32.076Z,58.60
2023-04-18T02:53:01.733Z,52.30
2023-04-18T02:55:29.984Z,56.00
2023-04-18T02:57:58.536Z,72.00
2023-04-18T03:00:26.801Z,71.20
2023-04-18T03:02:55.142Z,51.00
2023-04-18T03:05:23.613Z,53.10
2023-04-18T03:07:51.809Z,63.90
2023-04-18T03:10:21.372Z,67.90
2023-04-18T03:12:49.527Z,62.40
2023-04-18T03:15:17.708Z,57.50
2023-04-18T03:17:45.920Z,48.30
2023-04-18T03:20:14.066Z,60.00
2023-04-18T03:22:42.222Z,57.40
2023-04-18T03:25:11.271Z,61.30
2023-04-18T03:27:40.890Z,67.40
2023-04-18T03:30:10.377Z,62.70
2023-04-18T03:32:38.681Z,54.60
2023-04-18T03:35:07.271Z,53.40
2023-04-18T03:37:35.415Z,52.80
2023-04-18T03:40:05.372Z,45.00
2023-04-18T03:42:33.596Z,47.40
2023-04-18T03:45:03.378Z,52.40
2023-04-18T03:47:33.473Z,64.40
2023-04-18T03:50:01.710Z,50.70
2023-04-18T03:52:30.002Z,51.90
2023-04-18T03:54:58.186Z,55.50
2023-04-18T03:57:26.382Z,56.50
2023-04-18T03:59:54.573Z,43.20
2023-04-18T04:02:24.259Z,42.50
2023-04-18T04:04:52.693Z,61.50
2023-04-18T04:07:20.995Z,48.00
2023-04-18T04:09:49.332Z,47.40
2023-04-18T04:12:17.654Z,49.70
2023-04-18T04:14:45.832Z,55.50
2023-04-18T04:17:14.002Z,58.90
2023-04-18T04:19:43.592Z,48.00
2023-04-18T04:22:11.992Z,57.90
2023-04-18T04:24:40.470Z,57.70
2023-04-18T04:27:08.723Z,46.30
2023-04-18T04:29:38.764Z,61.30
2023-04-18T04:32:08.172Z,55.50
2023-04-18T04:34:36.846Z,56.70
2023-04-18T04:37:06.415Z,44.00
2023-04-18T04:39:34.590Z,43.20
2023-04-18T04:42:04.593Z,48.60
2023-04-18T04:44:33.330Z,34.10
2023-04-18T04:47:01.589Z,38.10
2023-04-18T04:49:29.769Z,36.20
2023-04-18T04:51:59.592Z,34.40
2023-04-18T04:54:31.068Z,24.60
2023-04-18T04:56:59.308Z,25.00
2023-04-18T04:59:27.506Z,28.30
2023-04-18T05:01:55.983Z,42.30
2023-04-18T05:04:24.410Z,29.20
2023-04-18T05:06:52.904Z,39.90
2023-04-18T05:09:21.075Z,50.00
2023-04-18T05:11:50.704Z,43.60
2023-04-18T05:14:20.761Z,32.40
2023-04-18T05:16:49.034Z,32.40
2023-04-18T05:19:17.291Z,23.10
2023-04-18T05:21:45.510Z,26.00
2023-04-18T05:24:13.956Z,26.40
2023-04-18T05:26:42.809Z,27.00
2023-04-18T05:29:12.411Z,28.00
2023-04-18T05:31:40.567Z,26.00
2023-04-18T05:34:08.724Z,38.90
2023-04-18T05:36:37.049Z,38.60
2023-04-18T05:39:05.322Z,39.40
2023-04-18T05:41:33.518Z,42.50
2023-04-18T05:44:05.298Z,34.00
2023-04-18T05:46:35.802Z,29.80
2023-04-18T05:49:04.030Z,37.50
2023-04-18T05:51:32.263Z,32.00
2023-04-18T05:54:00.461Z,22.90
2023-04-18T05:56:28.729Z,26.50
2023-04-18T05:58:56.889Z,30.00
2023-04-18T06:01:25.064Z,34.00
2023-04-18T06:03:55.445Z,22.20
2023-04-18T06:06:23.862Z,24.30
2023-04-18T06:08:52.023Z,21.90
2023-04-18T06:11:21.269Z,22.80
2023-04-18T06:13:49.472Z,19.30
2023-04-18T06:16:17.755Z,22.10
2023-04-18T06:18:45.966Z,24.80
2023-04-18T06:21:15.536Z,26.80
2023-04-18T06:23:43.715Z,29.80
2023-04-18T06:26:12.866Z,22.90
2023-04-18T06:28:41.094Z,27.70
2023-04-18T06:31:09.445Z,16.20
2023-04-18T06:33:38.686Z,27.40
2023-04-18T06:36:08.918Z,10.40
2023-04-18T06:38:38.629Z,15.90
2023-04-18T06:41:06.785Z,27.80
2023-04-18T06:43:35.894Z,17.40
2023-04-18T06:46:05.493Z,14.90
2023-04-18T06:48:33.700Z,24.20
2023-04-18T06:51:01.855Z,24.70
2023-04-18T06:53:30.070Z,21.60
2023-04-18T06:55:59.670Z,26.10
2023-04-18T06:58:27.920Z,26.50
2023-04-18T07:00:56.126Z,22.50
2023-04-18T07:03:24.486Z,23.60
2023-04-18T07:05:53.072Z,26.40
2023-04-18T07:08:21.266Z,17.90
2023-04-18T07:10:49.422Z,14.70
2023-04-18T07:13:19.158Z,17.30
2023-04-18T07:15:47.402Z,25.90
2023-04-18T07:18:23.294Z,20.30
2023-04-18T07:20:54.912Z,22.90
2023-04-18T07:23:23.180Z,22.50
2023-04-18T07:25:51.387Z,19.40
2023-04-18T07:28:21.221Z,23.20
2023-04-18T07:30:50.266Z,22.30
2023-04-18T07:33:18.578Z,20.90
2023-04-18T07:35:47.008Z,21.50
2023-04-18T07:38:15.175Z,20.30
2023-04-18T07:40:43.603Z,25.20
2023-04-18T07:43:11.854Z,31.70
2023-04-18T07:45:43.331Z,18.60
2023-04-18T07:48:11.747Z,32.10
2023-04-18T07:50:39.955Z,17.30
2023-04-18T07:53:09.139Z,29.40
2023-04-18T07:55:37.317Z,20.60
2023-04-18T07:58:05.780Z,24.70
2023-04-18T08:00:33.981Z,20.40
2023-04-18T08:03:03.851Z,25.10
2023-04-18T08:05:32.245Z,17.60
2023-04-18T08:08:00.501Z,25.90
2023-04-18T08:10:28.829Z,14.30
2023-04-18T08:12:57.077Z,21.90
2023-04-18T08:15:27.184Z,22.90
2023-04-18T08:17:55.647Z,25.20
2023-04-18T08:20:25.780Z,31.30
2023-04-18T08:23:06.124Z,41.30
2023-04-18T08:25:36.759Z,35.90
2023-04-18T08:28:05.232Z,28.30
2023-04-18T08:30:33.504Z,36.60
2023-04-18T08:33:02.172Z,36.90
2023-04-18T08:35:32.076Z,28.80
2023-04-18T08:38:00.685Z,33.50
2023-04-18T08:40:30.683Z,35.70
2023-04-18T08:42:59.412Z,36.00
2023-04-18T08:45:29.625Z,25.10
2023-04-18T08:48:01.444Z,31.60
2023-04-18T08:50:31.919Z,35.10
2023-04-18T08:53:01.924Z,35.10
2023-04-18T08:55:30.432Z,31.80
2023-04-18T08:57:58.712Z,32.60
2023-04-18T09:00:27.322Z,35.30
2023-04-18T09:02:57.369Z,30.20
2023-04-18T09:05:27.679Z,34.50
2023-04-18T09:07:57.698Z,38.90
2023-04-18T09:10:30.921Z,30.00
2023-04-18T09:13:01.029Z,34.80
2023-04-18T09:15:30.156Z,40.80
2023-04-18T09:18:03.421Z,50.00
2023-04-18T09:20:38.021Z,32.10
2023-04-18T09:23:10.678Z,42.40
2023-04-18T09:25:45.485Z,42.00
2023-04-18T09:28:24.624Z,30.30
2023-04-18T09:30:54.374Z,37.50
2023-04-18T09:33:28.626Z,38.20
2023-04-18T09:35:57.085Z,40.60
2023-04-18T09:41:21.224Z,52.20
2023-04-18T09:43:49.958Z,47.40
2023-04-18T09:46:18.710Z,43.10
2023-04-18T09:48:46.935Z,49.30
2023-04-18T09:51:17.045Z,48.50
2023-04-18T09:53:47.644Z,46.80
2023-04-18T09:56:25.723Z,52.10
2023-04-18T09:58:58.380Z,40.20
2023-04-18T10:01:29.838Z,40.60
2023-04-18T10:03:58.846Z,38.20
2023-04-18T10:06:31.739Z,39.30
2023-04-18T10:09:00.504Z,30.40
2023-04-18T10:11:31.809Z,32.10
2023-04-18T10:14:04.670Z,36.40
2023-04-18T10:16:34.831Z,39.90
2023-04-18T10:19:25.901Z,38.60
2023-04-18T10:21:55.470Z,36.90
2023-04-18T10:24:49.544Z,52.10
2023-04-18T10:27:19.689Z,38.60
2023-04-18T10:29:48.871Z,43.20
2023-04-18T10:32:17.393Z,41.50
2023-04-18T10:34:47.440Z,41.90
2023-04-18T10:37:17.757Z,47.30
2023-04-18T10:39:51.331Z,45.20
2023-04-18T10:42:41.025Z,47.50
2023-04-18T10:45:22.428Z,49.00
2023-04-18T10:47:51.023Z,56.30
2023-04-18T10:50:19.289Z,53.20
2023-04-18T10:52:47.468Z,48.50
2023-04-18T10:55:19.969Z,51.10
2023-04-18T10:57:50.599Z,46.20
2023-04-18T11:00:21.762Z,48.00
2023-04-18T11:02:52.230Z,50.50
2023-04-18T11:05:22.744Z,56.50
2023-04-18T11:07:51.202Z,56.00
2023-04-18T11:10:21.330Z,51.60
2023-04-18T11:12:51.306Z,43.30
2023-04-18T11:15:22.025Z,52.10
2023-04-18T11:18:01.307Z,55.80
2023-04-18T11:20:30.567Z,54.10
2023-04-18T11:23:00.309Z,48.10
2023-04-18T11:25:30.655Z,51.00
2023-04-18T11:28:02.593Z,45.30
2023-04-18T11:30:38.046Z,51.40
2023-04-18T11:33:08.370Z,51.50
2023-04-18T11:35:39.695Z,54.00
2023-04-18T11:38:08.012Z,51.50
2023-04-18T11:40:37.294Z,50.80
2023-04-18T11:43:08.464Z,51.70
2023-04-18T11:45:36.737Z,54.20
2023-04-18T11:48:05.229Z,50.80
2023-04-18T11:50:37.349Z,51.00
2023-04-18T11:53:05.557Z,46.30
2023-04-18T11:55:34.120Z,53.80
2023-04-18T11:58:03.361Z,52.10
2023-04-18T12:00:34.920Z,53.90
2023-04-18T12:03:05.360Z,48.90
2023-04-18T12:05:34.937Z,47.20
2023-04-18T12:08:07.929Z,48.00
2023-04-18T12:10:37.004Z,49.40
2023-04-18T12:13:08.189Z,53.30
2023-04-18T12:15:40.584Z,50.50
2023-04-18T12:18:09.504Z,47.90
2023-04-18T12:20:39.596Z,41.90
2023-04-18T12:23:08.422Z,46.10
2023-04-18T12:25:36.949Z,51.60
2023-04-18T12:28:15.513Z,45.30
2023-04-18T12:30:45.182Z,50.60
2023-04-18T12:33:13.449Z,48.10
2023-04-18T12:35:42.524Z,47.60
2023-04-18T12:38:11.028Z,47.20
2023-04-18T12:40:40.785Z,50.50
2023-04-18T12:43:09.156Z,45.70
2023-04-18T12:45:37.360Z,48.60
2023-04-18T12:48:07.543Z,42.90
2023-04-18T12:50:36.000Z,49.90
2023-04-18T12:53:04.395Z,48.00
2023-04-18T12:55:32.840Z,44.80
2023-04-18T12:58:01.175Z,45.30
2023-04-18T13:00:31.270Z,49.10
2023-04-18T13:03:00.908Z,46.60
2023-04-18T13:05:33.640Z,46.50
2023-04-18T13:10:34.249Z,48.70
2023-04-18T13:13:02.462Z,45.00
2023-04-18T13:15:30.651Z,44.40
2023-04-18T13:18:04.572Z,46.10
2023-04-18T13:20:35.228Z,43.40
2023-04-18T13:23:05.442Z,44.60
2023-04-18T13:25:33.732Z,44.00
2023-04-18T13:28:02.029Z,45.80
2023-04-18T13:30:30.421Z,49.30
2023-04-18T13:32:58.715Z,45.80
2023-04-18T13:35:27.073Z,52.40
2023-04-18T13:37:56.770Z,49.00
2023-04-18T13:40:25.361Z,48.20
2023-04-18T13:42:53.739Z,52.70
2023-04-18T13:45:22.002Z,47.40
2023-04-18T13:47:50.662Z,43.90
2023-04-18T13:50:19.125Z,44.60
2023-04-18T13:52:49.340Z,44.10
2023-04-18T13:55:19.832Z,46.00
2023-04-18T13:57:48.111Z,46.00
2023-04-18T14:00:17.565Z,50.50
2023-04-18T14:02:45.832Z,51.60
2023-04-18T14:05:14.144Z,50.10
2023-04-18T14:07:42.600Z,49.50
2023-04-18T14:10:11.695Z,50.20
2023-04-18T14:12:51.068Z,49.80
2023-04-18T14:15:19.600Z,46.70
2023-04-18T14:17:48.057Z,50.90
2023-04-18T14:20:19.245Z,49.20
2023-04-18T14:22:47.584Z,48.10
2023-04-18T14:25:17.052Z,50.20
2023-04-18T14:28:04.219Z,50.20
2023-04-18T14:30:32.370Z,47.50
2023-04-18T14:33:00.628Z,47.30
2023-04-18T14:35:28.853Z,48.40
2023-04-18T14:37:57.037Z,51.10
2023-04-18T14:40:25.540Z,50.00
2023-04-18T14:42:55.209Z,50.80
2023-04-18T14:45:23.410Z,48.00
2023-04-18T14:47:51.754Z,43.40
2023-04-18T14:50:20.154Z,46.60
2023-04-18T14:52:48.439Z,47.60
2023-04-18T14:55:16.627Z,49.60
2023-04-18T14:57:44.779Z,51.10
2023-04-18T15:00:15.430Z,47.80
2023-04-18T15:02:43.894Z,45.50
2023-04-18T15:05:13.474Z,55.80
2023-04-18T15:07:43.588Z,55.40
2023-04-18T15:10:13.086Z,53.30
2023-04-18T15:12:41.578Z,56.70
2023-04-18T15:15:10.480Z,58.80
2023-04-18T15:17:40.195Z,51.40
2023-04-18T15:20:09.553Z,53.60
2023-04-18T15:22:37.843Z,53.60
2023-04-18T15:25:06.976Z,52.40
2023-04-18T15:27:35.413Z,54.70
2023-04-18T15:30:03.878Z,52.60
2023-04-18T15:32:32.722Z,52.40
2023-04-18T15:35:03.028Z,49.80
2023-04-18T15:37:31.203Z,49.10
2023-04-18T15:39:59.344Z,48.20
2023-04-18T15:42:28.064Z,47.30
2023-04-18T15:44:56.241Z,51.00
2023-04-18T15:47:24.438Z,48.50
2023-04-18T15:49:52.662Z,47.30
2023-04-18T15:52:22.259Z,49.00
2023-04-18T15:54:51.896Z,46.50
2023-04-18T15:57:20.158Z,48.60
2023-04-18T15:59:48.326Z,48.30
2023-04-18T16:02:16.523Z,49.10
2023-04-18T16:04:44.735Z,48.90
2023-04-18T16:07:13.340Z,47.40
2023-04-18T16:09:42.958Z,48.50
2023-04-18T16:12:11.128Z,49.10
2023-04-18T16:14:39.318Z,45.80
2023-04-18T16:17:07.503Z,47.20
2023-04-18T16:19:38.253Z,50.20
2023-04-18T16:22:07.263Z,51.50
2023-04-18T16:24:35.545Z,50.10
2023-04-18T16:27:05.287Z,51.50
2023-04-18T16:29:33.472Z,51.60
2023-04-18T16:32:01.848Z,52.80
2023-04-18T16:34:30.007Z,58.40
2023-04-18T16:36:58.155Z,52.90
2023-04-18T16:39:28.024Z,51.50
2023-04-18T16:41:56.176Z,50.70
2023-04-18T16:44:25.733Z,51.60
2023-04-18T16:46:53.906Z,52.30
2023-04-18T16:49:23.582Z,51.70
2023-04-18T16:51:51.745Z,50.00
2023-04-18T16:54:19.944Z,51.50
2023-04-18T16:56:48.339Z,55.30
2023-04-18T16:59:16.677Z,50.00
2023-04-18T17:01:46.366Z,51.40
2023-04-18T17:04:15.470Z,51.80
2023-04-18T17:06:43.833Z,53.40
2023-04-18T17:09:13.698Z,54.10
2023-04-18T17:11:42.226Z,57.00
2023-04-18T17:14:10.443Z,52.40
2023-04-18T17:16:39.672Z,57.20
2023-04-18T17:19:09.476Z,50.90
2023-04-18T17:21:38.427Z,52.70
2023-04-18T17:24:07.317Z,50.00
2023-04-18T17:26:37.000Z,58.60
2023-04-18T17:29:05.734Z,53.40
2023-04-18T17:31:34.494Z,55.10
2023-04-18T17:34:03.599Z,56.30
2023-04-18T17:36:33.367Z,53.90
2023-04-18T17:39:06.235Z,54.70
2023-04-18T17:41:37.933Z,62.40
2023-04-18T17:44:07.508Z,58.60
2023-04-18T17:46:36.036Z,57.30
2023-04-18T17:49:04.651Z,61.10
2023-04-18T17:51:34.327Z,58.60
2023-04-18T17:54:02.484Z,60.20
2023-04-18T17:56:31.417Z,54.60
2023-04-18T17:58:59.587Z,56.20
2023-04-18T18:01:30.359Z,58.30
2023-04-18T18:03:58.884Z,56.50
2023-04-18T18:06:27.856Z,55.10
2023-04-18T18:08:57.418Z,58.80
2023-04-18T18:11:27.250Z,56.50
2023-04-18T18:13:57.312Z,52.90
2023-04-18T18:16:25.942Z,58.00
2023-04-18T18:18:54.257Z,60.90
2023-04-18T18:21:22.496Z,61.40
2023-04-18T18:23:50.639Z,59.70
2023-04-18T18:26:20.349Z,56.60
2023-04-18T18:28:48.527Z,59.90
2023-04-18T18:31:17.425Z,57.60
2023-04-18T18:33:45.804Z,58.30
2023-04-18T18:36:13.992Z,61.30
2023-04-18T18:38:42.221Z,61.10
2023-04-18T18:41:10.483Z,56.20
2023-04-18T18:43:40.020Z,59.30
2023-04-18T18:46:08.398Z,61.10
2023-04-18T18:48:39.093Z,60.10
2023-04-18T18:51:07.272Z,55.70
2023-04-18T18:53:36.152Z,54.00
2023-04-18T18:56:05.737Z,55.00
2023-04-18T18:58:33.898Z,52.50
2023-04-18T19:01:05.802Z,51.60
2023-04-18T19:03:34.861Z,53.70
2023-04-18T19:06:05.870Z,55.60
2023-04-18T19:08:34.534Z,52.90
2023-04-18T19:11:02.830Z,55.20
2023-04-18T19:13:31.269Z,52.20
2023-04-18T19:15:59.757Z,49.10
2023-04-18T19:18:29.486Z,50.70
2023-04-18T19:20:57.673Z,51.50
2023-04-18T19:23:27.741Z,46.80
2023-04-18T19:25:56.726Z,48.30
2023-04-18T19:28:26.108Z,42.60
2023-04-18T19:30:54.297Z,44.30
2023-04-18T19:33:24.362Z,46.80
2023-04-18T19:35:53.950Z,48.30
2023-04-18T19:38:22.172Z,50.60
2023-04-18T19:40:50.353Z,46.70
2023-04-18T19:43:18.580Z,53.00
2023-04-18T19:45:46.824Z,48.90
2023-04-18T19:48:15.808Z,47.30
2023-04-18T19:50:44.692Z,52.30
2023-04-18T19:53:19.157Z,45.80
2023-04-18T19:55:47.524Z,43.20
2023-04-18T19:58:44.715Z,41.40
2023-04-18T20:01:16.808Z,44.10
2023-04-18T20:03:47.046Z,42.80
2023-04-18T20:06:15.775Z,45.20
2023-04-18T20:08:45.912Z,46.80
2023-04-18T20:11:15.439Z,46.50
2023-04-18T20:13:43.730Z,47.20
2023-04-18T20:16:12.481Z,49.30
2023-04-18T20:18:42.220Z,36.50
2023-04-18T20:21:11.626Z,43.30
2023-04-18T20:23:42.062Z,41.00
2023-04-18T20:26:11.877Z,46.40
2023-04-18T20:28:40.595Z,43.20
2023-04-18T20:31:09.101Z,44.10
2023-04-18T20:33:37.918Z,45.40
2023-04-18T20:36:07.483Z,48.30
2023-04-18T20:38:37.276Z,41.40
2023-04-18T20:41:06.205Z,51.40
2023-04-18T20:43:37.325Z,55.90
2023-04-18T20:46:06.964Z,46.60
2023-04-18T20:48:35.249Z,44.70
2023-04-18T20:51:03.428Z,36.80
2023-04-18T20:53:31.937Z,41.80
2023-04-18T20:56:02.617Z,54.30
2023-04-18T20:58:31.141Z,53.50
2023-04-18T21:01:00.730Z,35.90
2023-04-18T21:03:29.081Z,43.60
2023-04-18T21:05:57.380Z,46.70
2023-04-18T21:08:25.673Z,41.20
2023-04-18T21:10:54.156Z,42.60
2023-04-18T21:13:22.400Z,46.90
2023-04-18T21:15:52.008Z,40.30
2023-04-18T21:18:21.774Z,44.60
2023-04-18T21:20:50.479Z,34.70
2023-04-18T21:23:18.643Z,36.00
2023-04-18T21:25:46.978Z,34.90
2023-04-18T21:28:15.166Z,40.40
2023-04-18T21:30:43.432Z,19.80
2023-04-18T21:33:11.658Z,23.00
2023-04-18T21:35:41.230Z,38.60
2023-04-18T21:38:09.404Z,38.20
2023-04-18T21:40:38.656Z,27.30
2023-04-18T21:43:08.016Z,36.00
2023-04-18T21:45:36.324Z,19.90
2023-04-18T21:48:05.042Z,35.00
2023-04-18T21:50:33.349Z,33.60
2023-04-18T21:53:02.875Z,28.90
2023-04-18T21:55:31.075Z,24.20
2023-04-18T21:57:59.239Z,38.50
2023-04-18T22:00:27.713Z,21.90
2023-04-18T22:02:56.019Z,40.80
2023-04-18T22:05:26.320Z,34.90
2023-04-18T22:07:58.381Z,33.00
2023-04-18T22:10:28.478Z,31.80
2023-04-18T22:12:56.844Z,51.70
2023-04-18T22:15:27.036Z,38.00
2023-04-18T22:17:55.574Z,31.70
2023-04-18T22:20:25.577Z,38.30
2023-04-18T22:22:55.478Z,44.60
2023-04-18T22:25:23.742Z,36.50
2023-04-18T22:27:53.292Z,48.90
2023-04-18T22:30:21.728Z,37.80
2023-04-18T22:32:49.925Z,36.80
2023-04-18T22:35:18.226Z,39.50
2023-04-18T22:37:46.420Z,34.70
2023-04-18T22:40:16.393Z,31.80
2023-04-18T22:42:44.656Z,36.70
2023-04-18T22:45:14.704Z,41.80
2023-04-18T22:47:43.036Z,45.50
2023-04-18T22:50:11.740Z,34.60
2023-04-18T22:52:40.039Z,37.50
2023-04-18T22:55:08.869Z,38.30
2023-04-18T22:57:37.443Z,43.40
2023-04-18T23:00:10.175Z,30.00
2023-04-18T23:02:40.010Z,53.30
2023-04-18T23:05:10.838Z,53.90
2023-04-18T23:07:39.219Z,46.00
2023-04-18T23:10:08.974Z,22.90
2023-04-18T23:12:37.318Z,17.40
2023-04-18T23:15:06.796Z,26.60
2023-04-18T23:17:35.999Z,28.60
2023-04-18T23:20:07.301Z,30.40
2023-04-18T23:22:35.634Z,23.60
2023-04-18T23:25:03.853Z,31.50
2023-04-18T23:27:32.104Z,26.00
2023-04-18T23:30:00.281Z,24.70
2023-04-18T23:32:28.627Z,17.80
2023-04-18T23:34:56.872Z,27.90
2023-04-18T23:37:26.528Z,23.00
2023-04-18T23:39:54.716Z,26.20
2023-04-18T23:42:22.854Z,22.90
2023-04-18T23:44:51.418Z,30.00
2023-04-18T23:47:19.659Z,34.70
2023-04-18T23:49:47.883Z,32.80
2023-04-18T23:52:16.046Z,26.70
2023-04-18T23:54:45.787Z,31.80
2023-04-18T23:57:14.011Z,42.40
2023-04-18T23:59:42.177Z,41.40
